Decoded Metar for NTAA (Tahiti Papeete in FRENCH POLYNESIA) (IATA:N/A) | Meteo·Mobile Aviation Weather
aviador You're here:

NTAA Decoded Metar

Tahiti Papeete in FRENCH POLYNESIA
Report Time2019-07-24 04:00:00
UTC Time2019-07-24 04:22:54
Flight Rules vfr VFR
Wind060° at 10 kt
W.Decomp.*RWY 04: 9.9 kt HW 1.2 kt RCW
Visibility9999 m
Phenomena:N/A
Clouds:Few 020 Hf
Scattered 300 Hf
Expected CloudBase > 2,000 ft AGL from Temp-Dew spread
CeilingNone
Temp27°C (ISA +12)
Dew Point22°C (74% RH)
Heat Index29.2°C
QNH1014 hPa
Density Alt1,706 ft
Elevation7 ft
Report Wrong Elevation
Raw Report
METAR NTAA 240400Z 06010KT 9999 FEW020 SCT300 27/22 Q1014 NOSIG=

Extra information for NTAA:More info

Metar Taf Metar & Taf Last 4 Metars F.Rules Stats Wind Profile Meteogram Temp Stats Airport Information Weather charts Add Link Nearby VenuesMetar ALERT Operation Metar Decoded Social comments